createdAt,value
2023-05-05T00:00:11.529Z,145.33
2023-05-05T00:01:10.642Z,148.53
2023-05-05T00:02:10.696Z,146.07
2023-05-05T00:03:11.753Z,145.96
2023-05-05T00:04:10.835Z,146.43
2023-05-05T00:05:10.775Z,146.27
2023-05-05T00:06:11.811Z,147.18
2023-05-05T00:07:10.805Z,143.91
2023-05-05T00:08:10.956Z,145.41
2023-05-05T00:09:10.882Z,144.66
2023-05-05T00:10:11.904Z,145.07
2023-05-05T00:11:10.956Z,144.30
2023-05-05T00:12:11.961Z,145.13
2023-05-05T00:13:11.014Z,144.46
2023-05-05T00:14:10.945Z,145.40
2023-05-05T00:15:10.987Z,144.40
2023-05-05T00:16:12.066Z,143.85
2023-05-05T00:17:12.264Z,145.41
2023-05-05T00:18:12.143Z,145.43
2023-05-05T00:19:12.158Z,145.11
2023-05-05T00:20:11.129Z,144.43
2023-05-05T00:21:11.137Z,143.29
2023-05-05T00:22:11.237Z,144.41
2023-05-05T00:23:11.305Z,146.04
2023-05-05T00:24:11.358Z,144.12
2023-05-05T00:25:11.374Z,142.81
2023-05-05T00:26:11.295Z,144.91
2023-05-05T00:27:11.328Z,146.08
2023-05-05T00:28:12.489Z,143.27
2023-05-05T00:29:11.400Z,142.62
2023-05-05T00:30:12.435Z,142.91
2023-05-05T00:31:12.566Z,146.28
2023-05-05T00:32:11.513Z,141.28
2023-05-05T00:33:12.559Z,141.89
2023-05-05T00:34:11.707Z,144.70
2023-05-05T00:35:12.629Z,140.97
2023-05-05T00:36:11.640Z,142.65
2023-05-05T00:37:11.679Z,143.51
2023-05-05T00:38:12.690Z,143.71
2023-05-05T00:39:12.717Z,144.40
2023-05-05T00:40:12.861Z,142.25
2023-05-05T00:41:11.879Z,141.99
2023-05-05T00:42:11.936Z,141.50
2023-05-05T00:43:11.948Z,142.13
2023-05-05T00:44:11.998Z,140.99
2023-05-05T00:45:12.014Z,143.78
2023-05-05T00:46:12.052Z,140.59
2023-05-05T00:47:11.978Z,142.52
2023-05-05T00:48:12.125Z,143.24
2023-05-05T00:49:12.064Z,142.74
2023-05-05T00:50:12.085Z,141.06
2023-05-05T00:51:12.169Z,142.54
2023-05-05T00:52:12.158Z,139.65
2023-05-05T00:53:13.297Z,142.99
2023-05-05T00:54:13.373Z,143.26
2023-05-05T00:55:12.254Z,138.79
2023-05-05T00:56:13.323Z,140.42
2023-05-05T00:57:13.442Z,141.87
2023-05-05T00:58:12.482Z,141.41
2023-05-05T00:59:12.425Z,142.37
2023-05-05T01:00:12.562Z,140.58
2023-05-05T01:01:12.585Z,141.89
2023-05-05T01:02:12.539Z,140.24
2023-05-05T01:03:13.749Z,143.01
2023-05-05T01:04:12.736Z,142.59
2023-05-05T01:05:12.699Z,140.83
2023-05-05T01:06:12.759Z,139.93
2023-05-05T01:07:12.833Z,142.85
2023-05-05T01:08:13.840Z,140.43
2023-05-05T01:09:12.889Z,141.30
2023-05-05T01:10:19.706Z,139.44
2023-05-05T01:11:13.817Z,139.74
2023-05-05T01:12:12.847Z,139.93
2023-05-05T01:13:13.858Z,140.02
2023-05-05T01:14:13.817Z,141.02
2023-05-05T01:15:13.879Z,143.08
2023-05-05T01:16:12.851Z,141.09
2023-05-05T01:17:12.787Z,141.92
2023-05-05T01:18:12.849Z,139.61
2023-05-05T01:19:12.775Z,139.97
2023-05-05T01:20:12.837Z,140.67
2023-05-05T01:21:12.757Z,138.86
2023-05-05T01:22:13.845Z,139.56
2023-05-05T01:23:13.742Z,138.00
2023-05-05T01:24:12.880Z,138.60
2023-05-05T01:25:13.035Z,138.23
2023-05-05T01:26:12.974Z,140.65
2023-05-05T01:27:12.896Z,139.63
2023-05-05T01:28:13.060Z,141.28
2023-05-05T01:29:13.021Z,137.35
2023-05-05T01:30:13.065Z,138.60
2023-05-05T01:31:13.083Z,138.74
2023-05-05T01:32:14.111Z,136.41
2023-05-05T01:33:14.167Z,138.21
2023-05-05T01:34:14.304Z,136.90
2023-05-05T01:35:13.337Z,137.54
2023-05-05T01:36:14.277Z,136.96
2023-05-05T01:37:13.364Z,137.21
2023-05-05T01:38:13.361Z,136.62
2023-05-05T01:39:14.418Z,137.57
2023-05-05T01:40:14.442Z,138.04
2023-05-05T01:41:14.551Z,138.54
2023-05-05T01:42:15.268Z,138.20
2023-05-05T01:43:13.562Z,138.21
2023-05-05T01:44:14.800Z,138.97
2023-05-05T01:45:13.732Z,136.68
2023-05-05T01:46:13.812Z,138.14
2023-05-05T01:47:14.798Z,136.22
2023-05-05T01:48:14.910Z,133.63
2023-05-05T01:49:13.845Z,137.20
2023-05-05T01:50:13.990Z,136.36
2023-05-05T01:51:14.036Z,138.06
2023-05-05T01:52:14.083Z,135.34
2023-05-05T01:53:14.033Z,135.98
2023-05-05T01:54:14.178Z,135.69
2023-05-05T01:55:14.139Z,136.86
2023-05-05T01:56:14.170Z,137.16
2023-05-05T01:57:14.301Z,135.86
2023-05-05T01:58:14.373Z,134.87
2023-05-05T01:59:15.455Z,134.88
2023-05-05T02:00:14.468Z,137.67
2023-05-05T02:01:14.530Z,135.04
2023-05-05T02:02:14.592Z,136.02
2023-05-05T02:03:14.684Z,135.85
2023-05-05T02:04:15.608Z,134.83
2023-05-05T02:05:15.722Z,133.96
2023-05-05T02:06:14.768Z,136.27
2023-05-05T02:07:14.712Z,134.67
2023-05-05T02:08:15.854Z,133.78
2023-05-05T02:09:14.832Z,134.00
2023-05-05T02:10:14.976Z,135.55
2023-05-05T02:11:14.968Z,132.11
2023-05-05T02:12:15.024Z,132.37
2023-05-05T02:13:15.265Z,136.33
2023-05-05T02:14:16.166Z,132.94
2023-05-05T02:15:15.190Z,133.93
2023-05-05T02:16:15.240Z,132.94
2023-05-05T02:17:15.208Z,132.51
2023-05-05T02:18:16.358Z,133.95
2023-05-05T02:19:15.303Z,134.38
2023-05-05T02:20:15.443Z,135.57
2023-05-05T02:21:16.484Z,131.93
2023-05-05T02:22:15.482Z,133.11
2023-05-05T02:23:15.524Z,133.46
2023-05-05T02:24:16.679Z,133.85
2023-05-05T02:25:15.733Z,133.66
2023-05-05T02:26:15.735Z,133.80
2023-05-05T02:27:15.842Z,132.60
2023-05-05T02:28:16.891Z,132.12
2023-05-05T02:29:15.825Z,133.28
2023-05-05T02:30:17.013Z,132.77
2023-05-05T02:31:16.018Z,133.48
2023-05-05T02:32:16.088Z,130.66
2023-05-05T02:33:16.113Z,128.55
2023-05-05T02:34:16.090Z,130.50
2023-05-05T02:35:17.241Z,130.19
2023-05-05T02:36:17.186Z,129.18
2023-05-05T02:37:17.272Z,130.54
2023-05-05T02:38:16.295Z,133.14
2023-05-05T02:39:16.388Z,132.17
2023-05-05T02:40:16.422Z,130.30
2023-05-05T02:41:17.481Z,133.08
2023-05-05T02:42:17.578Z,132.68
2023-05-05T02:43:17.071Z,130.02
2023-05-05T02:44:16.730Z,129.58
2023-05-05T02:45:17.713Z,131.25
2023-05-05T02:46:16.878Z,131.33
2023-05-05T02:47:16.909Z,132.42
2023-05-05T02:48:16.974Z,127.60
2023-05-05T02:49:17.098Z,130.24
2023-05-05T02:50:18.107Z,129.48
2023-05-05T02:51:17.101Z,129.83
2023-05-05T02:52:17.079Z,128.61
2023-05-05T02:53:17.218Z,129.12
2023-05-05T02:54:18.229Z,128.16
2023-05-05T02:55:18.340Z,130.42
2023-05-05T02:56:17.396Z,130.92
2023-05-05T02:57:18.426Z,129.24
2023-05-05T02:58:17.504Z,130.38
2023-05-05T02:59:17.552Z,130.12
2023-05-05T03:00:17.554Z,131.39
2023-05-05T03:01:17.702Z,130.05
2023-05-05T03:02:17.739Z,129.65
2023-05-05T03:03:17.965Z,129.70
2023-05-05T03:04:18.866Z,129.30
2023-05-05T03:05:17.828Z,128.37
2023-05-05T03:06:18.949Z,132.55
2023-05-05T03:07:18.025Z,129.29
2023-05-05T03:08:18.123Z,129.76
2023-05-05T03:09:18.185Z,129.31
2023-05-05T03:10:18.183Z,127.56
2023-05-05T03:11:19.174Z,127.47
2023-05-05T03:12:19.255Z,127.51
2023-05-05T03:13:19.295Z,128.27
2023-05-05T03:14:18.406Z,128.17
2023-05-05T03:15:19.453Z,126.09
2023-05-05T03:16:18.653Z,128.25
2023-05-05T03:17:18.607Z,125.93
2023-05-05T03:18:18.702Z,124.32
2023-05-05T03:19:18.703Z,128.35
2023-05-05T03:20:18.760Z,129.31
2023-05-05T03:21:18.903Z,128.81
2023-05-05T03:22:18.915Z,127.99
2023-05-05T03:23:19.957Z,127.62
2023-05-05T03:24:19.057Z,126.22
2023-05-05T03:25:19.116Z,123.58
2023-05-05T03:26:19.230Z,127.64
2023-05-05T03:27:19.149Z,124.71
2023-05-05T03:28:19.301Z,127.94
2023-05-05T03:29:20.346Z,122.65
2023-05-05T03:30:20.439Z,126.39
2023-05-05T03:31:19.416Z,127.51
2023-05-05T03:32:20.524Z,125.55
2023-05-05T03:33:20.571Z,128.64
2023-05-05T03:34:19.629Z,128.34
2023-05-05T03:35:20.791Z,128.25
2023-05-05T03:36:19.719Z,123.81
2023-05-05T03:37:19.772Z,125.09
2023-05-05T03:38:19.813Z,127.84
2023-05-05T03:39:20.882Z,123.61
2023-05-05T03:40:23.498Z,123.61
2023-05-05T03:41:20.942Z,123.98
2023-05-05T03:42:19.953Z,124.90
2023-05-05T03:43:19.933Z,125.53
2023-05-05T03:44:19.917Z,126.94
2023-05-05T03:45:20.960Z,127.04
2023-05-05T03:46:20.038Z,126.17
2023-05-05T03:47:19.976Z,126.92
2023-05-05T03:48:19.891Z,126.90
2023-05-05T03:49:20.941Z,123.13
2023-05-05T03:50:19.876Z,124.27
2023-05-05T03:51:20.016Z,124.61
2023-05-05T03:52:19.893Z,124.31
2023-05-05T03:53:20.864Z,124.34
2023-05-05T03:54:20.884Z,123.78
2023-05-05T03:55:20.856Z,120.67
2023-05-05T03:56:19.849Z,124.32
2023-05-05T03:57:20.824Z,121.70
2023-05-05T03:58:20.856Z,125.54
2023-05-05T03:59:19.838Z,123.65
2023-05-05T04:00:20.835Z,123.95
2023-05-05T04:01:20.809Z,121.02
2023-05-05T04:02:19.950Z,123.05
2023-05-05T04:03:19.934Z,123.14
2023-05-05T04:04:19.910Z,122.32
2023-05-05T04:05:19.801Z,122.42
2023-05-05T04:06:19.914Z,124.28
2023-05-05T04:07:20.010Z,120.07
2023-05-05T04:08:20.072Z,122.25
2023-05-05T04:09:20.044Z,122.27
2023-05-05T04:10:21.100Z,122.96
2023-05-05T04:11:21.242Z,121.16
2023-05-05T04:12:20.250Z,120.32
2023-05-05T04:13:20.366Z,120.15
2023-05-05T04:14:20.378Z,121.21
2023-05-05T04:15:21.405Z,121.48
2023-05-05T04:16:21.491Z,121.01
2023-05-05T04:17:20.505Z,119.71
2023-05-05T04:18:21.549Z,121.36
2023-05-05T04:19:21.643Z,120.62
2023-05-05T04:20:21.771Z,116.41
2023-05-05T04:21:21.738Z,117.89
2023-05-05T04:22:21.775Z,120.05
2023-05-05T04:23:20.923Z,122.07
2023-05-05T04:24:21.061Z,118.53
2023-05-05T04:25:21.936Z,120.15
2023-05-05T04:26:21.998Z,119.36
2023-05-05T04:27:22.035Z,119.23
2023-05-05T04:28:22.276Z,119.55
2023-05-05T04:29:21.138Z,117.81
2023-05-05T04:30:22.204Z,118.74
2023-05-05T04:31:22.348Z,118.23
2023-05-05T04:32:21.371Z,119.48
2023-05-05T04:33:22.363Z,117.19
2023-05-05T04:34:21.472Z,120.11
2023-05-05T04:35:22.559Z,115.89
2023-05-05T04:36:21.528Z,118.37
2023-05-05T04:37:22.688Z,117.93
2023-05-05T04:38:21.721Z,119.24
2023-05-05T04:39:21.745Z,115.64
2023-05-05T04:40:21.840Z,121.29
2023-05-05T04:41:22.894Z,117.88
2023-05-05T04:42:21.940Z,117.26
2023-05-05T04:43:22.968Z,119.47
2023-05-05T04:44:22.976Z,116.29
2023-05-05T04:45:23.130Z,116.17
2023-05-05T04:46:22.243Z,117.74
2023-05-05T04:47:23.229Z,118.94
2023-05-05T04:48:22.336Z,116.87
2023-05-05T04:49:22.278Z,117.94
2023-05-05T04:50:22.368Z,114.76
2023-05-05T04:51:22.464Z,116.47
2023-05-05T04:52:22.515Z,116.59
2023-05-05T04:53:23.551Z,117.05
2023-05-05T04:54:22.587Z,113.54
2023-05-05T04:55:23.554Z,117.27
2023-05-05T04:56:23.625Z,117.77
2023-05-05T04:57:22.686Z,115.90
2023-05-05T04:58:22.706Z,115.37
2023-05-05T04:59:23.825Z,114.96
2023-05-05T05:00:22.900Z,117.78
2023-05-05T05:01:22.904Z,114.30
2023-05-05T05:02:24.120Z,118.77
2023-05-05T05:03:24.066Z,114.11
2023-05-05T05:04:23.135Z,113.86
2023-05-05T05:05:23.135Z,114.05
2023-05-05T05:06:23.317Z,110.28
2023-05-05T05:07:23.308Z,113.68
2023-05-05T05:08:23.385Z,112.49
2023-05-05T05:09:23.417Z,114.65
2023-05-05T05:10:23.519Z,114.51
2023-05-05T05:11:23.522Z,112.11
2023-05-05T05:12:23.644Z,112.49
2023-05-05T05:13:24.707Z,114.11
2023-05-05T05:14:23.741Z,114.61
2023-05-05T05:15:23.739Z,114.09
2023-05-05T05:16:24.881Z,112.06
2023-05-05T05:17:23.952Z,111.37
2023-05-05T05:18:23.992Z,109.94
2023-05-05T05:19:23.959Z,113.46
2023-05-05T05:20:25.062Z,112.77
2023-05-05T05:21:24.067Z,108.68
2023-05-05T05:22:25.128Z,111.42
2023-05-05T05:23:24.185Z,114.67
2023-05-05T05:24:25.273Z,112.28
2023-05-05T05:25:24.259Z,112.40
2023-05-05T05:26:24.324Z,110.79
2023-05-05T05:27:24.381Z,111.52
2023-05-05T05:28:24.456Z,112.79
2023-05-05T05:29:24.468Z,111.13
2023-05-05T05:30:24.529Z,112.31
2023-05-05T05:31:25.645Z,112.13
2023-05-05T05:32:25.949Z,114.46
2023-05-05T05:33:24.732Z,117.72
2023-05-05T05:34:25.433Z,114.51
2023-05-05T05:35:24.771Z,117.55
2023-05-05T05:36:25.842Z,114.76
2023-05-05T05:37:24.912Z,117.85
2023-05-05T05:38:25.708Z,116.75
2023-05-05T05:39:26.317Z,117.84
2023-05-05T05:40:26.032Z,122.20
2023-05-05T05:41:25.317Z,124.29
2023-05-05T05:42:26.150Z,123.15
2023-05-05T05:43:25.386Z,124.75
2023-05-05T05:44:25.332Z,122.82
2023-05-05T05:45:25.571Z,128.52
2023-05-05T05:46:25.319Z,130.52
2023-05-05T05:47:26.279Z,129.91
2023-05-05T05:48:25.393Z,132.94
2023-05-05T05:49:26.675Z,133.72
2023-05-05T05:50:25.391Z,134.05
2023-05-05T05:51:25.575Z,132.88
2023-05-05T05:52:25.324Z,135.35
2023-05-05T05:53:27.013Z,136.05
2023-05-05T05:54:25.915Z,134.67
2023-05-05T05:55:25.646Z,130.70
2023-05-05T05:56:25.882Z,126.14
2023-05-05T05:57:25.813Z,109.02
2023-05-05T05:58:26.849Z,103.47
2023-05-05T05:59:25.954Z,98.66
2023-05-05T06:00:26.535Z,91.49
2023-05-05T06:01:25.989Z,90.06
2023-05-05T06:02:25.677Z,90.21
2023-05-05T06:03:26.038Z,87.36
2023-05-05T06:04:27.101Z,87.82
2023-05-05T06:05:26.995Z,81.34
2023-05-05T06:06:26.118Z,75.46
2023-05-05T06:07:25.968Z,71.52
2023-05-05T06:08:25.865Z,66.83
2023-05-05T06:09:25.817Z,61.84
2023-05-05T06:10:28.466Z,56.76
2023-05-05T06:11:26.842Z,53.84
2023-05-05T06:12:25.870Z,53.60
2023-05-05T06:13:25.844Z,40.35
2023-05-05T06:14:26.834Z,59.86
2023-05-05T06:15:25.847Z,50.46
2023-05-05T06:16:26.943Z,37.44
2023-05-05T06:17:27.365Z,48.00
2023-05-05T06:18:25.850Z,47.60
2023-05-05T06:19:25.765Z,50.36
2023-05-05T06:20:25.818Z,44.95
2023-05-05T06:21:25.784Z,43.10
2023-05-05T06:22:25.762Z,52.27
2023-05-05T06:23:25.769Z,43.13
2023-05-05T06:24:26.087Z,38.51
2023-05-05T06:25:25.737Z,48.02
2023-05-05T06:26:26.713Z,48.88
2023-05-05T06:27:26.794Z,45.79
2023-05-05T06:28:25.775Z,49.35
2023-05-05T06:29:25.806Z,52.73
2023-05-05T06:30:26.225Z,53.69
2023-05-05T06:31:26.024Z,46.09
2023-05-05T06:32:26.280Z,52.13
2023-05-05T06:33:26.970Z,60.80
2023-05-05T06:34:25.639Z,57.98
2023-05-05T06:35:26.649Z,62.53
2023-05-05T06:36:25.672Z,62.13
2023-05-05T06:37:25.650Z,52.74
2023-05-05T06:38:25.975Z,46.44
2023-05-05T06:39:26.773Z,47.92
2023-05-05T06:40:25.673Z,50.68
2023-05-05T06:41:25.598Z,50.70
2023-05-05T06:42:25.698Z,49.06
2023-05-05T06:43:26.628Z,43.40
2023-05-05T06:44:26.587Z,42.58
2023-05-05T06:45:25.642Z,38.76
2023-05-05T06:46:25.615Z,43.13
2023-05-05T06:47:26.669Z,44.12
2023-05-05T06:48:25.758Z,43.48
2023-05-05T06:49:25.554Z,39.04
2023-05-05T06:50:25.580Z,36.58
2023-05-05T06:51:25.621Z,38.20
2023-05-05T06:52:26.076Z,39.29
2023-05-05T06:53:26.504Z,25.79
2023-05-05T06:54:26.558Z,29.80
2023-05-05T06:55:26.583Z,29.90
2023-05-05T06:56:25.515Z,26.54
2023-05-05T06:57:26.920Z,25.00
2023-05-05T06:58:25.484Z,25.03
2023-05-05T06:59:25.592Z,26.57
2023-05-05T07:00:25.640Z,26.69
2023-05-05T07:01:26.816Z,27.12
2023-05-05T07:02:26.863Z,26.99
2023-05-05T07:03:25.750Z,28.77
2023-05-05T07:04:25.880Z,25.13
2023-05-05T07:05:25.896Z,25.91
2023-05-05T07:06:25.903Z,25.82
2023-05-05T07:07:26.025Z,28.67
2023-05-05T07:08:26.031Z,25.31
2023-05-05T07:09:26.097Z,25.15
2023-05-05T07:10:26.183Z,25.00
2023-05-05T07:11:27.257Z,27.17
2023-05-05T07:12:26.389Z,25.84
2023-05-05T07:13:26.407Z,25.18
2023-05-05T07:14:27.453Z,27.54
2023-05-05T07:15:29.669Z,25.56
2023-05-05T07:16:27.538Z,25.00
2023-05-05T07:17:26.523Z,27.11
2023-05-05T07:18:27.378Z,26.85
2023-05-05T07:19:26.423Z,26.56
2023-05-05T07:20:27.560Z,26.85
2023-05-05T07:21:27.367Z,26.26
2023-05-05T07:22:27.397Z,26.52
2023-05-05T07:23:26.386Z,27.00
2023-05-05T07:24:26.365Z,29.17
2023-05-05T07:25:26.385Z,33.16
2023-05-05T07:26:26.331Z,34.25
2023-05-05T07:27:27.345Z,36.76
2023-05-05T07:28:27.378Z,37.41
2023-05-05T07:29:26.319Z,40.18
2023-05-05T07:30:26.507Z,40.69
2023-05-05T07:31:27.373Z,39.68
2023-05-05T07:32:26.335Z,39.13
2023-05-05T07:33:26.285Z,37.98
2023-05-05T07:34:27.278Z,44.35
2023-05-05T07:35:26.366Z,42.61
2023-05-05T07:36:26.430Z,42.36
2023-05-05T07:37:26.265Z,37.78
2023-05-05T07:38:26.313Z,27.42
2023-05-05T07:39:26.342Z,26.62
2023-05-05T07:40:26.465Z,25.41
2023-05-05T07:41:26.446Z,25.90
2023-05-05T07:42:27.480Z,30.56
2023-05-05T07:43:26.549Z,26.02
2023-05-05T07:44:26.547Z,25.05
2023-05-05T07:45:27.622Z,28.02
2023-05-05T07:46:26.695Z,28.80
2023-05-05T07:47:28.065Z,32.54
2023-05-05T07:48:27.695Z,25.00
2023-05-05T07:49:26.664Z,24.69
2023-05-05T07:50:26.779Z,34.67
2023-05-05T07:51:27.795Z,38.08
2023-05-05T07:52:43.643Z,41.63
2023-05-05T07:53:27.783Z,42.02
2023-05-05T07:54:26.909Z,43.63
2023-05-05T07:55:26.799Z,49.55
2023-05-05T07:56:26.744Z,60.95
2023-05-05T07:57:26.782Z,73.69
2023-05-05T07:58:27.781Z,84.89
2023-05-05T07:59:27.824Z,94.15
2023-05-05T08:00:26.776Z,100.89
2023-05-05T08:01:26.887Z,107.23
2023-05-05T08:02:26.897Z,113.99
2023-05-05T08:03:26.988Z,119.56
2023-05-05T08:04:26.798Z,123.98
2023-05-05T08:05:26.743Z,129.30
2023-05-05T08:06:26.738Z,135.67
2023-05-05T08:07:27.791Z,141.26
2023-05-05T08:08:27.048Z,146.88
2023-05-05T08:09:26.795Z,150.81
2023-05-05T08:10:27.850Z,154.78
2023-05-05T08:11:29.533Z,160.88
2023-05-05T08:12:26.907Z,165.79
2023-05-05T08:13:26.917Z,169.94
2023-05-05T08:14:27.918Z,172.28
2023-05-05T08:15:26.977Z,179.08
2023-05-05T08:16:26.979Z,180.01
2023-05-05T08:17:26.963Z,184.96
2023-05-05T08:18:26.863Z,188.86
2023-05-05T08:19:29.301Z,191.89
2023-05-05T08:20:26.861Z,192.10
2023-05-05T08:21:27.912Z,192.99
2023-05-05T08:22:26.846Z,196.30
2023-05-05T08:23:26.853Z,201.18
2023-05-05T08:24:26.958Z,208.79
2023-05-05T08:25:26.839Z,212.21
2023-05-05T08:26:27.835Z,215.14
2023-05-05T08:27:27.818Z,218.27
2023-05-05T08:28:26.842Z,221.06
2023-05-05T08:29:26.943Z,224.57
2023-05-05T08:30:26.796Z,224.18
2023-05-05T08:31:27.827Z,226.81
2023-05-05T08:32:29.719Z,226.88
2023-05-05T08:33:26.856Z,227.18
2023-05-05T08:34:27.831Z,228.54
2023-05-05T08:35:26.812Z,230.05
2023-05-05T08:36:27.763Z,232.63
2023-05-05T08:37:27.796Z,236.91
2023-05-05T08:38:26.760Z,237.77
2023-05-05T08:39:26.792Z,239.44
2023-05-05T08:40:26.962Z,241.86
2023-05-05T08:41:26.781Z,241.81
2023-05-05T08:42:37.159Z,242.10
2023-05-05T08:43:28.038Z,242.45
2023-05-05T08:44:26.716Z,243.33
2023-05-05T08:45:27.746Z,243.03
2023-05-05T08:46:27.782Z,242.93
2023-05-05T08:47:26.712Z,228.61
2023-05-05T08:48:26.787Z,190.37
2023-05-05T08:49:26.756Z,98.83
2023-05-05T08:50:26.739Z,41.07
2023-05-05T08:51:27.721Z,24.10
2023-05-05T08:52:26.726Z,15.10
2023-05-05T08:53:26.675Z,29.21
2023-05-05T08:54:26.655Z,33.11
2023-05-05T08:55:27.628Z,11.66
2023-05-05T08:56:27.757Z,43.06
2023-05-05T08:57:26.660Z,23.48
2023-05-05T08:58:29.046Z,36.15
2023-05-05T08:59:26.611Z,52.66
2023-05-05T09:00:27.700Z,58.73
2023-05-05T09:01:26.701Z,50.59
2023-05-05T09:02:26.854Z,43.93
2023-05-05T09:03:26.800Z,52.30
2023-05-05T09:04:26.747Z,60.30
2023-05-05T09:05:27.820Z,39.82
2023-05-05T09:06:26.920Z,41.58
2023-05-05T09:07:26.891Z,31.49
2023-05-05T09:08:28.072Z,44.31
2023-05-05T09:09:27.018Z,55.69
2023-05-05T09:10:30.101Z,55.65
2023-05-05T09:11:28.046Z,47.49
2023-05-05T09:12:28.214Z,60.01
2023-05-05T09:13:27.097Z,71.13
2023-05-05T09:14:27.062Z,72.29
2023-05-05T09:15:27.047Z,73.49
2023-05-05T09:16:27.074Z,67.87
2023-05-05T09:17:27.045Z,65.42
2023-05-05T09:18:28.113Z,73.22
2023-05-05T09:19:27.038Z,66.20
2023-05-05T09:20:27.025Z,62.57
2023-05-05T09:21:26.994Z,64.70
2023-05-05T09:22:28.029Z,67.34
2023-05-05T09:23:26.984Z,60.03
2023-05-05T09:24:26.991Z,67.72
2023-05-05T09:25:26.988Z,74.83
2023-05-05T09:26:27.970Z,72.30
2023-05-05T09:27:27.986Z,56.42
2023-05-05T09:28:27.980Z,64.79
2023-05-05T09:29:27.984Z,73.20
2023-05-05T09:30:26.929Z,77.67
2023-05-05T09:31:26.957Z,77.01
2023-05-05T09:32:30.435Z,76.94
2023-05-05T09:33:27.005Z,77.01
2023-05-05T09:34:26.954Z,77.22
2023-05-05T09:35:26.978Z,71.90
2023-05-05T09:36:26.976Z,75.70
2023-05-05T09:37:26.945Z,77.74
2023-05-05T09:38:26.997Z,76.73
2023-05-05T09:39:26.873Z,69.73
2023-05-05T09:40:26.877Z,72.98
2023-05-05T09:41:26.903Z,79.05
2023-05-05T09:42:26.923Z,90.78
2023-05-05T09:43:26.894Z,100.22
2023-05-05T09:44:26.979Z,108.41
2023-05-05T09:45:26.892Z,117.45
2023-05-05T09:46:26.835Z,121.78
2023-05-05T09:47:29.853Z,123.78
2023-05-05T09:48:26.904Z,123.60
2023-05-05T09:49:27.490Z,122.96
2023-05-05T09:50:26.845Z,116.63
2023-05-05T09:51:26.833Z,124.90
2023-05-05T09:52:26.833Z,126.88
2023-05-05T09:53:28.152Z,129.75
